Time,TemperatureF,DewpointF,PressureIn,WindDirection,WindDirectionDegrees,WindSpeedMPH,WindSpeedGustMPH,Humidity,HourlyPrecipIn,Conditions,Clouds,dailyrainin,SoftwareType,DateUTC
2013-09-29 00:05:00,47.1,46.0,30.18,NNW,327,0.0,0.0,94,0.00,,,0.00,weatherlink.com 1.10,2013-09-29 04:05:00,
2013-09-29 00:20:00,47.0,45.0,30.17,NW,313,0.0,0.0,94,0.00,,,0.00,weatherlink.com 1.10,2013-09-29 04:20:00,
2013-09-29 00:35:00,46.7,45.0,30.16,NW,313,0.0,0.0,94,0.00,,,0.00,weatherlink.com 1.10,2013-09-29 04:35:00,
2013-09-29 00:50:00,46.5,45.0,30.16,NW,313,0.0,0.0,95,0.00,,,0.00,weatherlink.com 1.10,2013-09-29 04:50:00,
2013-09-29 01:05:00,46.7,45.0,30.16,NW,313,0.0,0.0,95,0.00,,,0.00,weatherlink.com 1.10,2013-09-29 05:05:00,
2013-09-29 01:20:00,46.6,45.0,30.17,NW,314,0.0,0.0,95,0.00,,,0.00,weatherlink.com 1.10,2013-09-29 05:20:00,
2013-09-29 01:35:00,46.4,45.0,30.16,NW,313,0.0,0.0,95,0.00,,,0.00,weatherlink.com 1.10,2013-09-29 05:35:00,
2013-09-29 01:50:00,46.1,45.0,30.16,NW,313,0.0,0.0,95,0.00,,,0.00,weatherlink.com 1.10,2013-09-29 05:50:00,
2013-09-29 02:05:00,45.7,44.0,30.17,NW,313,0.0,0.0,95,0.00,,,0.00,weatherlink.com 1.10,2013-09-29 06:05:00,
2013-09-29 02:20:00,45.6,44.0,30.16,NW,314,0.0,0.0,95,0.00,,,0.00,weatherlink.com 1.10,2013-09-29 06:20:00,
2013-09-29 02:35:00,45.4,44.0,30.16,NW,313,0.0,0.0,95,0.00,,,0.00,weatherlink.com 1.10,2013-09-29 06:35:00,
2013-09-29 02:50:00,45.0,44.0,30.15,NW,313,0.0,0.0,95,0.00,,,0.00,weatherlink.com 1.10,2013-09-29 06:50:00,
2013-09-29 03:05:00,44.9,44.0,30.15,NW,314,0.0,0.0,95,0.00,,,0.00,weatherlink.com 1.10,2013-09-29 07:05:00,
2013-09-29 03:20:00,44.6,43.0,30.15,NW,314,0.0,0.0,95,0.00,,,0.00,weatherlink.com 1.10,2013-09-29 07:20:00,
2013-09-29 03:35:00,44.3,43.0,30.14,NW,314,0.0,0.0,95,0.00,,,0.00,weatherlink.com 1.10,2013-09-29 07:35:00,
2013-09-29 03:50:00,44.3,43.0,30.14,NW,314,0.0,0.0,96,0.00,,,0.00,weatherlink.com 1.10,2013-09-29 07:50:00,
2013-09-29 04:06:00,44.2,43.0,30.14,NW,314,0.0,0.0,96,0.00,,,0.00,weatherlink.com 1.10,2013-09-29 08:06:00,
2013-09-29 04:21:00,44.1,43.0,30.14,NW,314,0.0,0.0,96,0.00,,,0.00,weatherlink.com 1.10,2013-09-29 08:21:00,
2013-09-29 04:36:00,44.0,43.0,30.14,NW,313,0.0,0.0,96,0.00,,,0.00,weatherlink.com 1.10,2013-09-29 08:36:00,
2013-09-29 04:51:00,44.0,43.0,30.14,NW,313,0.0,0.0,96,0.00,,,0.00,weatherlink.com 1.10,2013-09-29 08:51:00,
2013-09-29 05:06:00,43.7,43.0,30.14,NW,314,0.0,0.0,96,0.00,,,0.00,weatherlink.com 1.10,2013-09-29 09:06:00,
2013-09-29 05:21:00,43.6,43.0,30.14,NW,313,0.0,0.0,96,0.00,,,0.00,weatherlink.com 1.10,2013-09-29 09:21:00,
2013-09-29 05:36:00,43.8,43.0,30.14,NW,313,0.0,0.0,96,0.00,,,0.00,weatherlink.com 1.10,2013-09-29 09:36:00,
2013-09-29 05:51:00,44.2,43.0,30.14,NW,314,0.0,0.0,96,0.00,,,0.00,weatherlink.com 1.10,2013-09-29 09:51:00,
2013-09-29 06:06:00,44.9,44.0,30.14,NW,314,0.0,0.0,96,0.00,,,0.00,weatherlink.com 1.10,2013-09-29 10:06:00,
2013-09-29 06:21:00,45.5,45.0,30.14,NW,314,0.0,0.0,96,0.00,,,0.00,weatherlink.com 1.10,2013-09-29 10:21:00,
2013-09-29 06:36:00,46.1,45.0,30.14,NW,314,0.0,0.0,97,0.00,,,0.00,weatherlink.com 1.10,2013-09-29 10:36:00,
2013-09-29 06:51:00,46.5,46.0,30.14,NW,314,0.0,0.0,97,0.00,,,0.00,weatherlink.com 1.10,2013-09-29 10:51:00,
2013-09-29 07:06:00,46.8,46.0,30.14,NW,314,0.0,0.0,97,0.00,,,0.00,weatherlink.com 1.10,2013-09-29 11:06:00,
2013-09-29 07:21:00,47.3,47.0,30.14,NW,314,0.0,0.0,97,0.00,,,0.00,weatherlink.com 1.10,2013-09-29 11:21:00,
2013-09-29 07:36:00,47.6,47.0,30.14,NW,314,0.0,0.0,97,0.00,,,0.00,weatherlink.com 1.10,2013-09-29 11:36:00,
2013-09-29 07:51:00,48.1,47.0,30.14,NW,313,0.0,0.0,97,0.00,,,0.00,weatherlink.com 1.10,2013-09-29 11:51:00,
2013-09-29 08:06:00,48.9,48.0,30.15,NW,314,0.0,0.0,97,0.00,,,0.00,weatherlink.com 1.10,2013-09-29 12:06:00,
2013-09-29 08:21:00,49.9,49.0,30.15,NW,313,0.0,0.0,97,0.00,,,0.00,weatherlink.com 1.10,2013-09-29 12:21:00,
2013-09-29 08:36:00,51.1,50.0,30.15,NW,309,0.0,0.0,97,0.00,,,0.00,weatherlink.com 1.10,2013-09-29 12:36:00,
2013-09-29 08:51:00,52.4,52.0,30.14,NW,308,0.0,0.0,97,0.00,,,0.00,weatherlink.com 1.10,2013-09-29 12:51:00,
2013-09-29 09:06:00,53.0,52.0,30.14,NW,308,0.0,0.0,97,0.00,,,0.00,weatherlink.com 1.10,2013-09-29 13:06:00,
2013-09-29 09:21:00,54.7,54.0,30.14,NE,37,0.0,1.0,98,0.00,,,0.00,weatherlink.com 1.10,2013-09-29 13:21:00,
2013-09-29 09:36:00,56.9,56.0,30.14,NE,50,0.0,1.0,97,0.00,,,0.00,weatherlink.com 1.10,2013-09-29 13:36:00,
2013-09-29 09:51:00,58.6,55.0,30.14,ENE,78,1.0,2.0,89,0.00,,,0.00,weatherlink.com 1.10,2013-09-29 13:51:00,
2013-09-29 10:06:00,60.8,54.0,30.14,ENE,76,1.0,3.0,77,0.00,,,0.00,weatherlink.com 1.10,2013-09-29 14:06:00,
2013-09-29 10:21:00,61.7,53.0,30.13,ENE,71,1.0,4.0,74,0.00,,,0.00,weatherlink.com 1.10,2013-09-29 14:21:00,
2013-09-29 10:36:00,63.1,54.0,30.13,East,79,1.0,2.0,73,0.00,,,0.00,weatherlink.com 1.10,2013-09-29 14:36:00,
2013-09-29 10:51:00,63.9,55.0,30.13,ENE,71,0.0,3.0,72,0.00,,,0.00,weatherlink.com 1.10,2013-09-29 14:51:00,
2013-09-29 11:07:00,64.6,53.0,30.13,West,267,0.0,3.0,67,0.00,,,0.00,weatherlink.com 1.10,2013-09-29 15:07:00,
2013-09-29 11:22:00,65.4,54.0,30.12,West,259,1.0,4.0,66,0.00,,,0.00,weatherlink.com 1.10,2013-09-29 15:22:00,
2013-09-29 11:37:00,66.9,55.0,30.11,East,86,1.0,2.0,65,0.00,,,0.00,weatherlink.com 1.10,2013-09-29 15:37:00,
2013-09-29 11:52:00,68.0,55.0,30.11,East,95,0.0,3.0,64,0.00,,,0.00,weatherlink.com 1.10,2013-09-29 15:52:00,
2013-09-29 12:07:00,68.7,54.0,30.11,ENE,68,2.0,7.0,60,0.00,,,0.00,weatherlink.com 1.10,2013-09-29 16:07:00,
2013-09-29 12:22:00,69.6,54.0,30.10,SW,216,0.0,4.0,59,0.00,,,0.00,weatherlink.com 1.10,2013-09-29 16:22:00,
2013-09-29 12:37:00,69.9,55.0,30.10,West,280,1.0,4.0,59,0.00,,,0.00,weatherlink.com 1.10,2013-09-29 16:37:00,
2013-09-29 12:52:00,71.0,56.0,30.10,SW,231,1.0,3.0,59,0.00,,,0.00,weatherlink.com 1.10,2013-09-29 16:52:00,
2013-09-29 13:07:00,70.6,55.0,30.09,NNE,15,0.0,2.0,58,0.00,,,0.00,weatherlink.com 1.10,2013-09-29 17:07:00,
2013-09-29 13:22:00,71.9,56.0,30.09,ESE,116,1.0,3.0,58,0.00,,,0.00,weatherlink.com 1.10,2013-09-29 17:22:00,
2013-09-29 13:37:00,72.3,57.0,30.08,SW,231,1.0,5.0,58,0.00,,,0.00,weatherlink.com 1.10,2013-09-29 17:37:00,
2013-09-29 13:52:00,71.3,56.0,30.07,NNE,12,0.0,1.0,58,0.00,,,0.00,weatherlink.com 1.10,2013-09-29 17:52:00,
2013-09-29 14:07:00,72.2,55.0,30.06,SW,221,1.0,3.0,56,0.00,,,0.00,weatherlink.com 1.10,2013-09-29 18:07:00,
2013-09-29 14:22:00,72.0,57.0,30.06,ENE,73,0.0,4.0,59,0.00,,,0.00,weatherlink.com 1.10,2013-09-29 18:22:00,
2013-09-29 14:37:00,72.0,56.0,30.06,WNW,291,1.0,2.0,57,0.00,,,0.00,weatherlink.com 1.10,2013-09-29 18:37:00,
2013-09-29 14:52:00,72.3,55.0,30.05,WNW,290,0.0,4.0,55,0.00,,,0.00,weatherlink.com 1.10,2013-09-29 18:52:00,
2013-09-29 15:07:00,71.9,55.0,30.05,SSW,198,0.0,1.0,55,0.00,,,0.00,weatherlink.com 1.10,2013-09-29 19:07:00,
2013-09-29 15:22:00,72.0,57.0,30.05,WNW,286,4.0,4.0,59,0.00,,,0.00,weatherlink.com 1.10,2013-09-29 19:22:00,
2013-09-29 15:37:00,73.2,55.0,30.05,ESE,119,1.0,4.0,54,0.00,,,0.00,weatherlink.com 1.10,2013-09-29 19:37:00,
2013-09-29 15:52:00,72.7,54.0,30.05,SSW,207,0.0,6.0,53,0.00,,,0.00,weatherlink.com 1.10,2013-09-29 19:52:00,
2013-09-29 16:07:00,72.2,57.0,30.04,WNW,285,0.0,1.0,59,0.00,,,0.00,weatherlink.com 1.10,2013-09-29 20:07:00,
2013-09-29 16:22:00,70.9,58.0,30.04,WNW,284,0.0,0.0,65,0.00,,,0.00,weatherlink.com 1.10,2013-09-29 20:22:00,
2013-09-29 16:37:00,70.8,59.0,30.03,WNW,284,0.0,0.0,67,0.00,,,0.00,weatherlink.com 1.10,2013-09-29 20:37:00,
2013-09-29 16:52:00,72.0,57.0,30.03,ESE,108,0.0,2.0,59,0.00,,,0.00,weatherlink.com 1.10,2013-09-29 20:52:00,
2013-09-29 17:07:00,72.5,57.0,30.03,East,95,0.0,2.0,58,0.00,,,0.00,weatherlink.com 1.10,2013-09-29 21:07:00,
2013-09-29 17:22:00,71.4,58.0,30.03,ESE,105,0.0,1.0,63,0.00,,,0.00,weatherlink.com 1.10,2013-09-29 21:22:00,
2013-09-29 17:37:00,69.7,58.0,30.02,ESE,105,0.0,0.0,66,0.00,,,0.00,weatherlink.com 1.10,2013-09-29 21:37:00,
2013-09-29 17:52:00,68.2,58.0,30.02,ESE,104,0.0,0.0,69,0.00,,,0.00,weatherlink.com 1.10,2013-09-29 21:52:00,
2013-09-29 18:07:00,67.4,58.0,30.02,ESE,104,0.0,0.0,73,0.00,,,0.00,weatherlink.com 1.10,2013-09-29 22:07:00,
2013-09-29 18:22:00,66.7,58.0,30.02,ESE,104,0.0,0.0,73,0.00,,,0.00,weatherlink.com 1.10,2013-09-29 22:22:00,
2013-09-29 18:39:00,64.1,57.0,30.02,ESE,105,0.0,0.0,77,0.00,,,0.00,weatherlink.com 1.10,2013-09-29 22:39:00,
2013-09-29 18:53:00,62.0,56.0,30.02,ESE,105,0.0,0.0,81,0.00,,,0.00,weatherlink.com 1.10,2013-09-29 22:53:00,
2013-09-29 19:08:00,60.4,56.0,30.02,ESE,105,0.0,0.0,84,0.00,,,0.00,weatherlink.com 1.10,2013-09-29 23:08:00,
2013-09-29 19:23:00,59.2,55.0,30.03,ESE,105,0.0,1.0,86,0.00,,,0.00,weatherlink.com 1.10,2013-09-29 23:23:00,
2013-09-29 19:38:00,58.3,54.0,30.04,ESE,111,0.0,0.0,84,0.00,,,0.00,weatherlink.com 1.10,2013-09-29 23:38:00,
2013-09-29 19:53:00,57.2,53.0,30.04,ESE,112,0.0,1.0,86,0.00,,,0.00,weatherlink.com 1.10,2013-09-29 23:53:00,
2013-09-29 20:08:00,56.3,53.0,30.05,ESE,111,0.0,0.0,87,0.00,,,0.00,weatherlink.com 1.10,2013-09-30 00:08:00,
2013-09-29 20:23:00,55.6,53.0,30.05,SSE,150,0.0,0.0,89,0.00,,,0.00,weatherlink.com 1.10,2013-09-30 00:23:00,
2013-09-29 20:38:00,55.0,52.0,30.05,SSE,149,0.0,0.0,89,0.00,,,0.00,weatherlink.com 1.10,2013-09-30 00:38:00,
2013-09-29 20:53:00,54.6,52.0,30.05,SSE,149,0.0,0.0,90,0.00,,,0.00,weatherlink.com 1.10,2013-09-30 00:53:00,
2013-09-29 21:08:00,54.4,52.0,30.06,South,186,0.0,0.0,91,0.00,,,0.00,weatherlink.com 1.10,2013-09-30 01:08:00,
2013-09-29 21:23:00,54.3,52.0,30.06,South,186,0.0,0.0,91,0.00,,,0.00,weatherlink.com 1.10,2013-09-30 01:23:00,
2013-09-29 21:38:00,54.2,52.0,30.06,South,186,0.0,1.0,92,0.00,,,0.00,weatherlink.com 1.10,2013-09-30 01:38:00,
2013-09-29 21:53:00,53.9,52.0,30.05,South,185,0.0,0.0,93,0.00,,,0.00,weatherlink.com 1.10,2013-09-30 01:53:00,
2013-09-29 22:08:00,53.3,51.0,30.05,South,186,0.0,0.0,93,0.00,,,0.00,weatherlink.com 1.10,2013-09-30 02:08:00,
2013-09-29 22:23:00,52.6,51.0,30.05,South,185,0.0,0.0,93,0.00,,,0.00,weatherlink.com 1.10,2013-09-30 02:23:00,
2013-09-29 22:38:00,52.3,50.0,30.05,SSW,205,0.0,1.0,93,0.00,,,0.00,weatherlink.com 1.10,2013-09-30 02:38:00,
2013-09-29 22:53:00,52.0,50.0,30.05,SSW,206,0.0,0.0,93,0.00,,,0.00,weatherlink.com 1.10,2013-09-30 02:53:00,
2013-09-29 23:08:00,51.9,50.0,30.05,SSW,205,0.0,0.0,94,0.00,,,0.00,weatherlink.com 1.10,2013-09-30 03:08:00,
2013-09-29 23:23:00,51.6,50.0,30.04,SSW,205,0.0,0.0,94,0.00,,,0.00,weatherlink.com 1.10,2013-09-30 03:23:00,
2013-09-29 23:38:00,51.5,50.0,30.04,SSW,206,0.0,0.0,94,0.00,,,0.00,weatherlink.com 1.10,2013-09-30 03:38:00,
2013-09-29 23:53:00,51.8,50.0,30.03,SSW,206,0.0,0.0,94,0.00,,,0.00,weatherlink.com 1.10,2013-09-30 03:53:00,